logo
Search for airport 
image banner adimage banner adimage banner ad
image banner ad

YBULL - Bullarra

Located in Exmouth Gulf, Australia

ICAO - , IATA -

Data provided by Airmate  

General information

Coordinates: S22°40'23" E114°3'53"
Elevation is 55 feet MSL.
Magnetic variation is 0° East
View others Airports in Western Australia

Operational data

Special qualification required
Current time UTC:
Current local time:
Weather at : YPLM - Learmonth ( 49 km )
METAR: YPLM 290958Z AUTO 18019KT 140V200 9999 // NCD 30/11 Q1014 RF00/0/000/0
TAF: TAF AMD YPLM 290922Z 2909/3006 18020G30KT CAVOK BECMG 2916/2918 17014KT 9999 SCT010 FM300100 18017KT CAVOK
View NOTAMs / SUP AIP / TFR affecting this airport [VIEW]
Communications frequencies: [VIEW]

Runways:

RWY identifierQFULength (ft)Width (ft)SurfaceLDA (ft)
0551°294896DIRT
23231°294896DIRT

Airport contact information

Address: Exmouth Gulf Australia

Satellite view of YBULL